Time;durP1;ratioP1;P1;durP2;ratioP2;P2;SDS_P1;SDS_P2;PMS_P1;PMS_P2;Temp;Humidity;BMP_temperature;BMP_pressure;BME280_temperature;BME280_humidity;BME280_pressure;Samples;Min_cycle;Max_cycle;Signal;HPM_P1;HPM_P2
2022/03/15 00:02:09;;;;;;;0.60;0.60;;;;;;;9.38;57.51;102238.44;5124798;28;20717;-79
2022/03/15 00:04:39;;;;;;;0.50;0.50;;;;;;;9.40;57.69;102239.31;5142310;28;20088;-80
2022/03/15 00:07:16;;;;;;;0.88;0.88;;;;;;;9.38;57.25;102242.81;5166000;28;20162;-79
2022/03/15 00:09:47;;;;;;;0.93;0.93;;;;;;;9.42;56.99;102248.06;5155797;28;20038;-80
2022/03/15 00:12:25;;;;;;;0.95;0.95;;;;;;;9.40;57.15;102241.94;5159651;28;20026;-80
2022/03/15 00:14:58;;;;;;;2.60;2.15;;;;;;;9.41;57.28;102243.69;5142491;28;20042;-80
2022/03/15 00:17:30;;;;;;;0.85;0.85;;;;;;;9.40;57.42;102236.72;5123366;28;20035;-80
2022/03/15 00:20:05;;;;;;;1.35;1.25;;;;;;;9.38;57.35;102229.72;5145383;28;20042;-80
2022/03/15 00:22:38;;;;;;;0.40;0.40;;;;;;;9.36;57.38;102231.47;5153443;28;20036;-80
2022/03/15 00:25:11;;;;;;;0.57;0.57;;;;;;;9.37;57.39;102236.72;5125208;28;20131;-80
2022/03/15 00:27:46;;;;;;;0.85;0.85;;;;;;;9.36;57.19;102229.72;5121601;28;20047;-80
2022/03/15 00:30:18;;;;;;;1.35;1.30;;;;;;;9.34;57.11;102226.22;5122319;28;20766;-80
2022/03/15 00:32:49;;;;;;;1.23;1.00;;;;;;;9.20;57.52;102222.72;5143267;28;20051;-80
2022/03/15 00:35:24;;;;;;;0.75;0.75;;;;;;;9.28;57.60;102226.22;5103402;28;20054;-80
2022/03/15 00:38:00;;;;;;;1.08;1.08;;;;;;;9.27;57.53;102211.38;5156990;28;20094;-81
2022/03/15 00:40:31;;;;;;;1.95;1.50;;;;;;;9.25;57.43;102220.97;5128761;28;20130;-81
2022/03/15 00:43:06;;;;;;;1.20;1.15;;;;;;;9.23;57.89;102222.69;5114781;28;20490;-81
2022/03/15 00:45:51;;;;;;;5.10;1.40;;;;;;;9.24;57.61;102216.59;5145563;28;20098;-81
2022/03/15 00:48:22;;;;;;;1.88;1.50;;;;;;;9.25;57.85;102226.19;5124786;28;20030;-81
2022/03/15 00:51:15;;;;;;;0.65;0.65;;;;;;;9.18;58.69;102227.06;5110473;28;20070;-81
2022/03/15 00:53:49;;;;;;;0.93;0.93;;;;;;;9.17;57.65;102227.94;5104328;28;20030;-81
2022/03/15 00:56:31;;;;;;;1.15;1.05;;;;;;;9.11;58.06;102224.44;5091180;29;20525;-82
2022/03/15 00:59:29;;;;;;;0.57;0.57;;;;;;;9.17;57.74;102231.44;5104487;28;20035;-81
2022/03/15 01:02:00;;;;;;;1.67;1.30;;;;;;;9.03;58.55;102234.00;5112591;28;20027;-80
2022/03/15 01:04:44;;;;;;;0.60;0.60;;;;;;;9.03;57.55;102220.91;5099841;28;20137;-81
2022/03/15 01:07:47;;;;;;;4.07;2.65;;;;;;;9.06;58.14;102226.13;5159590;28;20031;-81
2022/03/15 01:10:18;;;;;;;0.55;0.55;;;;;;;9.09;57.56;102225.31;5122718;28;20057;-81
2022/03/15 01:13:21;;;;;;;1.05;1.05;;;;;;;9.08;58.00;102224.41;5125647;28;20033;-80
2022/03/15 01:16:09;;;;;;;1.50;1.42;;;;;;;8.63;60.70;102221.59;5122600;28;20045;-81
2022/03/15 01:18:49;;;;;;;0.88;0.88;;;;;;;8.70;59.24;102227.75;5123014;28;20457;-80
2022/03/15 01:21:23;;;;;;;0.95;0.95;;;;;;;8.80;58.48;102219.06;5140683;28;20049;-80
2022/03/15 01:23:58;;;;;;;2.55;2.05;;;;;;;8.84;58.51;102224.31;5129267;28;20041;-81
2022/03/15 01:26:39;;;;;;;0.73;0.73;;;;;;;8.89;58.61;102222.56;5120187;28;20049;-80
2022/03/15 01:29:20;;;;;;;1.50;1.00;;;;;;;8.87;58.33;102217.34;5156780;28;20545;-80
2022/03/15 01:32:00;;;;;;;1.45;1.35;;;;;;;8.89;58.32;102228.72;5139198;28;20034;-80
2022/03/15 01:34:37;;;;;;;1.10;1.02;;;;;;;8.91;58.62;102220.84;5153781;28;20045;-80
2022/03/15 01:37:10;;;;;;;0.60;0.60;;;;;;;8.81;58.54;102215.56;5135558;28;20018;-80
2022/03/15 01:39:41;;;;;;;1.38;1.20;;;;;;;8.79;58.90;102217.34;5158466;28;20046;-80
2022/03/15 01:42:11;;;;;;;0.75;0.75;;;;;;;8.76;58.62;102212.06;5139172;28;20129;-80
2022/03/15 01:44:46;;;;;;;0.77;0.77;;;;;;;8.81;58.66;102205.09;5155303;28;20042;-80
2022/03/15 01:47:24;;;;;;;0.98;0.98;;;;;;;8.85;58.65;102205.13;5126356;28;20037;-80
2022/03/15 01:50:20;;;;;;;2.05;0.95;;;;;;;8.82;58.96;102204.25;5128380;28;20050;-80
2022/03/15 01:52:53;;;;;;;0.55;0.55;;;;;;;8.73;58.73;102200.72;5137812;28;20022;-81
2022/03/15 01:55:24;;;;;;;0.95;0.95;;;;;;;8.78;58.73;102201.59;5121034;28;20043;-80
2022/03/15 01:57:55;;;;;;;1.25;1.25;;;;;;;8.76;59.42;102206.84;5102185;28;20038;-80
2022/03/15 02:00:46;;;;;;;2.28;2.08;;;;;;;8.78;58.67;102202.50;5132148;28;20041;-80
2022/03/15 02:03:26;;;;;;;1.15;1.15;;;;;;;8.81;58.95;102193.78;5117858;28;20047;-80
2022/03/15 02:05:57;;;;;;;0.77;0.77;;;;;;;8.77;58.93;102197.22;5117204;28;20042;-81
2022/03/15 02:08:27;;;;;;;0.95;0.95;;;;;;;8.68;58.92;102189.38;5116997;28;20035;-81
2022/03/15 02:11:02;;;;;;;0.98;0.98;;;;;;;8.72;59.28;102193.72;5105089;28;20130;-81
2022/03/15 02:13:36;;;;;;;0.57;0.57;;;;;;;8.63;59.06;102191.97;5122343;28;20047;-80
2022/03/15 02:16:18;;;;;;;2.25;1.15;;;;;;;8.50;59.92;102193.63;5102283;28;20039;-80
2022/03/15 02:19:04;;;;;;;0.90;0.90;;;;;;;8.59;59.63;102182.34;5105646;28;20042;-80
2022/03/15 02:21:37;;;;;;;1.05;1.05;;;;;;;8.56;58.61;102177.06;5125186;28;20039;-80
2022/03/15 02:24:08;;;;;;;1.35;1.25;;;;;;;8.50;59.37;102178.81;5112611;28;20504;-80
2022/03/15 02:26:42;;;;;;;0.80;0.80;;;;;;;8.58;59.53;102177.97;5135397;28;20043;-80
2022/03/15 02:29:12;;;;;;;;;;;;;;;8.60;59.67;102173.63;5139985;28;20097;-81
2022/03/15 02:31:46;;;;;;;0.98;0.98;;;;;;;8.56;59.50;102169.22;5101632;28;19926;-81
2022/03/15 02:34:17;;;;;;;0.40;0.40;;;;;;;8.55;59.87;102176.22;5122655;28;20714;-80
2022/03/15 02:36:50;;;;;;;1.30;1.25;;;;;;;8.56;59.33;102166.59;5107673;28;20041;-81
2022/03/15 02:39:29;;;;;;;1.00;1.00;;;;;;;8.55;59.39;102167.50;5108065;28;20034;-81
2022/03/15 02:41:59;;;;;;;0.52;0.52;;;;;;;8.53;59.36;102161.38;5121121;28;20105;-82
2022/03/15 02:44:37;;;;;;;1.23;0.82;;;;;;;8.53;59.50;102161.38;5111938;28;20131;-81
2022/03/15 02:47:16;;;;;;;0.95;0.93;;;;;;;8.54;59.58;102157.91;5127966;28;20114;-81
2022/03/15 02:49:49;;;;;;;0.30;0.30;;;;;;;8.54;59.65;102150.91;5153211;28;20118;-81
2022/03/15 02:52:25;;;;;;;0.88;0.88;;;;;;;8.58;59.78;102149.19;5112287;28;20027;-81
2022/03/15 02:54:58;;;;;;;1.35;1.25;;;;;;;8.50;60.06;102150.03;5093594;28;20072;-81
2022/03/15 02:57:41;;;;;;;0.80;0.80;;;;;;;8.53;59.98;102148.31;5111204;28;20023;-82
2022/03/15 03:00:17;;;;;;;0.93;0.93;;;;;;;8.53;59.74;102145.69;5133574;28;20414;-81
2022/03/15 03:02:47;;;;;;;0.60;0.60;;;;;;;8.57;60.03;102140.47;5110011;28;20039;-82
2022/03/15 03:05:18;;;;;;;0.95;0.95;;;;;;;8.48;59.86;102133.44;5125009;28;20043;-82
2022/03/15 03:07:49;;;;;;;2.60;1.70;;;;;;;8.48;60.02;102128.22;5125560;28;20039;-81
2022/03/15 03:10:31;;;;;;;1.50;1.40;;;;;;;8.48;59.66;102122.97;5123606;28;20050;-82
2022/03/15 03:13:02;;;;;;;0.98;0.98;;;;;;;8.49;59.77;102129.09;5111597;28;20043;-82
2022/03/15 03:16:01;;;;;;;0.60;0.60;;;;;;;8.45;59.95;102133.41;5099681;28;20045;-82
2022/03/15 03:18:32;;;;;;;0.70;0.70;;;;;;;8.42;60.80;102122.06;5120531;28;20030;-82
2022/03/15 03:21:09;;;;;;;0.43;0.43;;;;;;;8.40;60.52;102119.44;5098743;28;20051;-81
2022/03/15 03:23:42;;;;;;;2.53;1.45;;;;;;;8.44;60.09;102126.44;5125082;28;20038;-82
2022/03/15 03:26:23;;;;;;;0.55;0.55;;;;;;;8.46;60.27;102126.44;5131893;28;20047;-82
2022/03/15 03:29:01;;;;;;;1.58;1.50;;;;;;;8.35;59.88;102136.84;5136016;28;20070;-81
2022/03/15 03:31:31;;;;;;;1.50;1.40;;;;;;;8.31;60.81;102132.47;5094729;28;20045;-82
2022/03/15 03:34:02;;;;;;;0.82;0.82;;;;;;;8.34;60.24;102124.63;5108150;28;20066;-82
2022/03/15 03:36:43;;;;;;;1.63;1.52;;;;;;;8.36;59.97;102122.91;5114432;28;20127;-81
2022/03/15 03:39:14;;;;;;;0.55;0.55;;;;;;;8.33;59.82;102117.66;5137316;28;20456;-82
2022/03/15 03:42:05;;;;;;;0.75;0.75;;;;;;;8.38;60.29;102121.19;5107170;28;20043;-82
2022/03/15 03:44:36;;;;;;;1.52;1.42;;;;;;;8.34;60.27;102116.78;5120724;28;20216;-82
2022/03/15 03:47:07;;;;;;;0.52;0.52;;;;;;;8.35;60.13;102110.69;5108111;28;20107;-81
2022/03/15 03:49:41;;;;;;;2.08;0.90;;;;;;;8.29;60.08;102111.53;5103491;28;20421;-81
2022/03/15 03:52:20;;;;;;;1.17;1.17;;;;;;;8.27;60.20;102115.88;5124249;28;20039;-82
2022/03/15 03:54:53;;;;;;;0.90;0.90;;;;;;;8.26;60.33;102114.16;5143506;28;20101;-81
2022/03/15 03:57:39;;;;;;;1.13;1.02;;;;;;;8.29;60.17;102108.06;5124761;28;20061;-82
2022/03/15 04:00:19;;;;;;;1.95;1.65;;;;;;;8.20;60.56;102106.25;5113499;28;20408;-81
2022/03/15 04:02:53;;;;;;;2.08;0.88;;;;;;;8.23;60.23;102111.50;5126904;28;20034;-81
2022/03/15 04:05:26;;;;;;;0.30;0.30;;;;;;;8.17;60.42;102101.91;5125694;28;20043;-81
2022/03/15 04:07:59;;;;;;;0.75;0.75;;;;;;;8.24;60.29;102115.88;5148615;28;20038;-81
2022/03/15 04:10:34;;;;;;;2.88;1.20;;;;;;;8.24;60.73;102118.50;5164941;28;20043;-82
2022/03/15 04:13:11;;;;;;;0.98;0.98;;;;;;;8.22;60.09;102109.75;5156258;28;20038;-81
2022/03/15 04:15:45;;;;;;;2.50;1.38;;;;;;;8.24;60.37;102115.00;5129524;28;20052;-81
2022/03/15 04:18:23;;;;;;;1.45;1.33;;;;;;;8.25;60.24;102106.28;5137772;28;20065;-81
2022/03/15 04:20:59;;;;;;;0.57;0.57;;;;;;;8.18;60.82;102105.41;5124518;28;20037;-81
2022/03/15 04:23:32;;;;;;;1.38;1.30;;;;;;;8.21;60.58;102094.94;5154723;28;20026;-82
2022/03/15 04:26:07;;;;;;;1.73;1.58;;;;;;;8.20;60.70;102101.03;5159706;28;20100;-80
2022/03/15 04:28:46;;;;;;;0.80;0.80;;;;;;;8.13;61.10;102097.53;5140253;28;20042;-80
2022/03/15 04:31:18;;;;;;;1.17;1.15;;;;;;;8.20;60.64;102098.41;5125762;28;20105;-80
2022/03/15 04:33:55;;;;;;;1.25;1.08;;;;;;;8.22;60.78;102098.44;5148835;28;20117;-81
2022/03/15 04:36:25;;;;;;;0.95;0.95;;;;;;;8.18;60.56;102095.81;5129175;28;20062;-81
2022/03/15 04:38:59;;;;;;;1.58;1.48;;;;;;;8.19;60.96;102105.41;5142305;28;20150;-80
2022/03/15 04:41:40;;;;;;;1.35;1.25;;;;;;;8.13;60.65;102100.16;5163989;28;20053;-81
2022/03/15 04:44:12;;;;;;;7.55;3.17;;;;;;;8.13;60.83;102099.25;5134977;28;20038;-80
2022/03/15 04:46:50;;;;;;;1.45;1.35;;;;;;;8.13;60.71;102094.03;5130195;28;20043;-82
2022/03/15 04:49:24;;;;;;;0.43;0.43;;;;;;;8.11;61.22;102093.13;5125026;28;20108;-81
2022/03/15 04:51:57;;;;;;;;;;;;;;;8.13;61.05;102094.03;5137695;28;20064;-80
2022/03/15 04:54:28;;;;;;;0.40;0.40;;;;;;;8.11;60.86;102096.66;5122543;28;19913;-80
2022/03/15 04:56:59;;;;;;;0.30;0.30;;;;;;;8.12;60.87;102090.56;5142932;28;20022;-80
2022/03/15 04:59:30;;;;;;;0.50;0.50;;;;;;;8.12;61.32;102090.56;5127944;28;20046;-80
2022/03/15 05:02:00;;;;;;;1.05;1.05;;;;;;;8.07;60.50;102087.03;5120295;28;20025;-80
2022/03/15 05:04:32;;;;;;;0.40;0.40;;;;;;;8.09;60.66;102074.84;5126772;28;20046;-81
2022/03/15 05:07:03;;;;;;;1.40;1.30;;;;;;;8.09;60.44;102082.69;5126326;28;20650;-80
2022/03/15 05:09:34;;;;;;;0.73;0.73;;;;;;;8.07;60.84;102071.34;5132635;28;20061;-80
2022/03/15 05:12:07;;;;;;;3.42;0.82;;;;;;;8.09;60.65;102072.22;5123475;28;20026;-80
2022/03/15 05:14:44;;;;;;;1.15;1.15;;;;;;;8.12;61.53;102066.13;5120958;28;20442;-80
2022/03/15 05:17:24;;;;;;;1.02;1.02;;;;;;;8.08;60.80;102070.47;5120693;28;20038;-80
2022/03/15 05:20:10;;;;;;;0.70;0.70;;;;;;;8.08;61.35;102064.38;5127781;28;20050;-80
2022/03/15 05:22:59;;;;;;;2.80;2.60;;;;;;;8.05;60.93;102065.25;5139394;28;20795;-79
2022/03/15 05:25:42;;;;;;;0.50;0.50;;;;;;;8.06;60.66;102064.34;5137202;23;20042;-80
2022/03/15 05:28:16;;;;;;;0.60;0.60;;;;;;;7.94;61.12;102066.91;5181399;28;20048;-79
2022/03/15 05:31:14;;;;;;;0.50;0.50;;;;;;;7.99;61.26;102071.31;5165187;28;20037;-80
2022/03/15 05:33:48;;;;;;;1.63;1.13;;;;;;;7.91;61.16;102065.16;5181998;28;20152;-79
2022/03/15 05:36:19;;;;;;;1.15;1.13;;;;;;;7.88;61.39;102063.41;5173060;28;20126;-80
2022/03/15 05:39:05;;;;;;;0.95;0.55;;;;;;;7.87;62.08;102060.78;5163562;28;20041;-80
2022/03/15 05:41:54;;;;;;;;;;;;;;;;;;;;;
2022/03/15 05:44:26;;;;;;;0.40;0.40;;;;;;;7.91;61.69;102052.09;5182394;28;20029;-82
2022/03/15 05:46:58;;;;;;;0.70;0.70;;;;;;;7.87;62.05;102051.22;5162437;28;20018;-81
2022/03/15 05:49:32;;;;;;;0.40;0.40;;;;;;;7.82;61.87;102041.59;5135733;28;20113;-80
2022/03/15 05:52:03;;;;;;;0.50;0.50;;;;;;;7.80;61.86;102049.44;5127756;28;20113;-80
2022/03/15 05:54:35;;;;;;;1.45;1.35;;;;;;;7.84;61.94;102051.19;5151095;28;20042;-80
2022/03/15 05:57:06;;;;;;;0.77;0.77;;;;;;;7.94;61.45;102046.00;5153459;28;20049;-81
2022/03/15 05:59:36;;;;;;;0.30;0.30;;;;;;;7.94;60.75;102044.25;5153550;28;20034;-80
2022/03/15 06:02:07;;;;;;;0.60;0.60;;;;;;;7.97;61.47;102038.19;5116738;28;20110;-80
2022/03/15 06:04:46;;;;;;;0.60;0.60;;;;;;;7.93;61.19;102044.25;5141330;28;20051;-82
2022/03/15 06:07:17;;;;;;;0.90;0.90;;;;;;;7.92;61.36;102037.28;5154452;28;20060;-80
2022/03/15 06:09:48;;;;;;;1.05;0.82;;;;;;;7.90;61.44;102042.50;5205144;28;20041;-81
2022/03/15 06:12:20;;;;;;;0.73;0.73;;;;;;;7.84;61.91;102040.72;5159074;28;20033;-80
2022/03/15 06:14:52;;;;;;;0.60;0.60;;;;;;;7.90;61.34;102033.78;5170320;28;20038;-81
2022/03/15 06:18:02;;;;;;;;;;;;;;;;;;;;;
2022/03/15 06:21:21;;;;;;;0.40;0.40;;;;;;;7.84;61.74;102035.50;5160567;28;20717;-81
2022/03/15 06:23:52;;;;;;;1.98;1.77;;;;;;;7.84;62.22;102030.28;5143901;28;20030;-81
2022/03/15 06:26:23;;;;;;;0.82;0.82;;;;;;;7.86;62.79;102033.78;5122705;28;20050;-80
2022/03/15 06:29:03;;;;;;;1.13;0.85;;;;;;;7.91;61.73;102032.91;5129484;28;20049;-80
2022/03/15 06:31:34;;;;;;;0.65;0.65;;;;;;;7.88;62.39;102037.28;5144795;28;20041;-80
2022/03/15 06:34:05;;;;;;;1.45;0.82;;;;;;;7.84;63.06;102035.50;5143132;28;20062;-79
2022/03/15 06:36:36;;;;;;;0.65;0.65;;;;;;;7.94;62.58;102022.50;5134917;28;20109;-81
2022/03/15 06:39:07;;;;;;;1.05;0.95;;;;;;;7.94;62.13;102031.19;5151551;28;20026;-79
2022/03/15 06:41:41;;;;;;;0.82;0.80;;;;;;;7.92;62.40;102022.50;5152792;28;20053;-80
2022/03/15 06:44:15;;;;;;;4.50;1.55;;;;;;;8.03;61.01;102036.47;5166745;28;20034;-82
2022/03/15 06:46:49;;;;;;;0.80;0.80;;;;;;;8.02;61.88;102021.66;5150558;28;20148;-80
2022/03/15 06:49:20;;;;;;;;;;;;;;;8.08;61.67;102023.41;5159106;28;20065;-79
2022/03/15 06:51:50;;;;;;;0.85;0.85;;;;;;;8.09;61.52;102017.31;5149527;28;20002;-82
2022/03/15 06:54:22;;;;;;;0.55;0.55;;;;;;;8.10;61.77;102015.59;5165823;28;20034;-80
2022/03/15 06:56:57;;;;;;;0.57;0.57;;;;;;;8.13;61.37;102011.25;5188320;28;20139;-80
2022/03/15 06:59:51;;;;;;;6.82;1.90;;;;;;;8.11;62.24;101996.41;5174413;28;20076;-80
2022/03/15 07:02:21;;;;;;;0.93;0.93;;;;;;;8.14;61.72;101997.28;5167612;28;20663;-80
2022/03/15 07:04:55;;;;;;;0.60;0.60;;;;;;;8.17;62.41;102007.78;5182407;28;20037;-81
2022/03/15 07:07:43;;;;;;;0.73;0.73;;;;;;;8.19;62.38;102011.28;5168006;28;20038;-82
2022/03/15 07:10:17;;;;;;;0.30;0.30;;;;;;;8.17;61.79;102012.16;5167204;28;20062;-80
2022/03/15 07:16:54;;;;;;;0.40;0.40;;;;;;;8.18;62.23;102019.13;5211932;22;20131;-83
2022/03/15 07:19:24;;;;;;;0.47;0.47;;;;;;;8.26;62.56;102012.19;5174932;28;20318;-84
2022/03/15 07:21:55;;;;;;;1.02;0.93;;;;;;;8.25;61.87;102010.44;5135746;28;20550;-85
2022/03/15 07:24:25;;;;;;;0.47;0.47;;;;;;;8.26;62.83;102008.66;5162689;28;20105;-85
2022/03/15 07:26:56;;;;;;;1.67;1.08;;;;;;;8.27;61.99;102006.06;5150016;28;20040;-86
2022/03/15 07:29:29;;;;;;;1.95;0.90;;;;;;;8.26;62.97;102012.19;5157350;28;20464;-84
2022/03/15 07:31:59;;;;;;;0.65;0.65;;;;;;;8.27;62.09;102003.44;5150118;28;20060;-85
2022/03/15 07:34:30;;;;;;;0.40;0.40;;;;;;;8.32;61.50;102003.44;5151325;28;20041;-85
2022/03/15 07:37:01;;;;;;;1.10;1.10;;;;;;;8.35;61.94;101998.25;5152899;28;20022;-87
2022/03/15 07:39:31;;;;;;;0.82;0.82;;;;;;;8.22;63.24;101999.09;5150073;28;20049;-86
2022/03/15 07:42:02;;;;;;;0.85;0.85;;;;;;;8.28;62.07;101999.09;5135990;28;20033;-87
2022/03/15 07:44:32;;;;;;;0.80;0.80;;;;;;;8.36;61.85;101992.16;5149403;28;20068;-87
2022/03/15 07:47:03;;;;;;;0.88;0.88;;;;;;;8.45;61.44;101983.44;5150696;28;20050;-88
2022/03/15 07:49:34;;;;;;;0.63;0.63;;;;;;;8.39;61.71;101986.91;5133538;28;20121;-87
2022/03/15 07:52:04;;;;;;;1.77;1.67;;;;;;;8.43;61.38;101982.59;5145420;28;20010;-88
2022/03/15 07:54:35;;;;;;;0.73;0.73;;;;;;;8.45;61.84;101976.47;5142191;28;20081;-89
2022/03/15 07:57:07;;;;;;;0.50;0.50;;;;;;;8.44;61.89;101977.34;5152955;28;20123;-89
2022/03/15 07:59:37;;;;;;;2.28;1.17;;;;;;;8.52;61.42;101971.28;5130024;28;20472;-89
2022/03/15 08:02:08;;;;;;;0.90;0.90;;;;;;;8.56;61.00;101978.25;5133894;28;20037;-89
2022/03/15 08:04:38;;;;;;;0.85;0.85;;;;;;;8.51;62.14;101978.28;5118328;28;20679;-89
2022/03/15 08:07:09;;;;;;;0.65;0.65;;;;;;;8.54;61.40;101978.25;5127582;28;20042;-89
2022/03/15 08:09:40;;;;;;;0.65;0.63;;;;;;;8.57;61.35;101982.63;5189650;28;20034;-88
2022/03/15 08:12:10;;;;;;;0.47;0.47;;;;;;;8.60;61.49;101980.88;5161371;28;20029;-86
2022/03/15 08:14:40;;;;;;;0.40;0.40;;;;;;;8.56;62.25;101976.53;5142570;28;20389;-86
2022/03/15 08:17:11;;;;;;;0.65;0.65;;;;;;;8.54;62.21;101974.78;5148922;28;20033;-88
2022/03/15 08:19:42;;;;;;;1.17;1.17;;;;;;;8.61;61.61;101974.78;5146044;28;20036;-88
2022/03/15 08:22:12;;;;;;;3.88;0.98;;;;;;;8.67;61.42;101973.91;5180949;28;20150;-88
2022/03/15 08:24:43;;;;;;;0.90;0.50;;;;;;;8.73;61.57;101973.06;5165252;28;20038;-88
2022/03/15 08:27:13;;;;;;;0.63;0.63;;;;;;;8.75;61.56;101969.56;5143827;28;20120;-87
2022/03/15 08:29:44;;;;;;;0.60;0.60;;;;;;;8.81;61.21;101964.31;5148391;28;20034;-88
2022/03/15 08:32:15;;;;;;;0.60;0.60;;;;;;;8.85;61.62;101969.56;5151429;28;20053;-88
2022/03/15 08:34:45;;;;;;;1.13;0.80;;;;;;;8.82;61.64;101966.06;5148512;28;20440;-87
2022/03/15 08:37:16;;;;;;;0.30;0.30;;;;;;;8.88;61.90;101967.81;5149334;28;20041;-88
2022/03/15 08:39:46;;;;;;;0.95;0.95;;;;;;;8.90;61.55;101963.47;5127845;28;20033;-86
2022/03/15 08:42:17;;;;;;;0.65;0.65;;;;;;;8.88;61.52;101954.72;5128233;28;20038;-87
2022/03/15 08:44:47;;;;;;;0.38;0.38;;;;;;;8.88;61.84;101959.09;5145877;28;20049;-89
2022/03/15 08:47:18;;;;;;;0.40;0.40;;;;;;;8.84;63.38;101957.34;5165671;28;20185;-88
2022/03/15 08:49:49;;;;;;;2.35;1.40;;;;;;;8.81;63.05;101959.09;5151020;28;20044;-87
2022/03/15 08:52:19;;;;;;;1.05;1.05;;;;;;;8.94;61.83;101957.34;5135533;28;20073;-84
2022/03/15 08:54:50;;;;;;;0.82;0.82;;;;;;;8.94;62.57;101952.09;5165153;28;20112;-85
2022/03/15 08:57:21;;;;;;;0.30;0.30;;;;;;;8.85;64.00;101956.47;5167710;28;20030;-88
2022/03/15 08:59:51;;;;;;;0.88;0.88;;;;;;;8.95;63.02;101953.00;5134114;28;20033;-86
2022/03/15 09:02:22;;;;;;;0.50;0.50;;;;;;;9.00;62.82;101942.53;5131883;28;20030;-85
2022/03/15 09:04:52;;;;;;;1.05;1.05;;;;;;;9.03;62.58;101946.00;5161808;28;20037;-85
2022/03/15 09:07:23;;;;;;;0.40;0.40;;;;;;;9.06;62.28;101948.59;5171485;28;20038;-85
2022/03/15 09:09:54;;;;;;;0.40;0.40;;;;;;;9.05;62.93;101946.00;5125227;28;20037;-86
2022/03/15 09:12:24;;;;;;;0.40;0.40;;;;;;;9.13;62.30;101939.88;5177402;28;20026;-86
2022/03/15 09:14:55;;;;;;;2.25;1.67;;;;;;;9.13;62.10;101939.88;5146044;28;20038;-88
2022/03/15 09:17:26;;;;;;;0.73;0.73;;;;;;;9.11;62.77;101941.63;5167445;28;20489;-85
2022/03/15 09:19:56;;;;;;;0.60;0.60;;;;;;;9.19;62.25;101931.13;5181307;28;20046;-87
2022/03/15 09:22:27;;;;;;;0.82;0.82;;;;;;;9.16;63.05;101927.66;5136883;28;20148;-87
2022/03/15 09:24:57;;;;;;;1.75;1.58;;;;;;;9.18;64.34;101915.44;5141804;28;20077;-88
2022/03/15 09:27:28;;;;;;;1.85;1.48;;;;;;;9.17;62.98;101922.44;5161043;28;20034;-84
2022/03/15 09:29:59;;;;;;;0.80;0.80;;;;;;;9.21;63.50;101920.69;5181530;28;20057;-88
2022/03/15 09:32:29;;;;;;;0.68;0.68;;;;;;;9.25;62.48;101907.56;5171077;28;20137;-88
2022/03/15 09:35:00;;;;;;;0.57;0.57;;;;;;;9.22;63.18;101914.53;5145106;28;20099;-87
2022/03/15 09:37:31;;;;;;;0.65;0.65;;;;;;;9.26;62.93;101903.19;5184328;28;20034;-86
2022/03/15 09:40:07;;;;;;;0.57;0.57;;;;;;;9.31;62.76;101906.66;5142139;28;20058;-86
2022/03/15 09:42:41;;;;;;;0.57;0.57;;;;;;;9.26;63.95;101908.44;5143328;28;20029;-86
2022/03/15 09:45:13;;;;;;;0.80;0.80;;;;;;;9.38;62.49;101908.38;5145343;28;20623;-87
2022/03/15 09:47:45;;;;;;;0.40;0.40;;;;;;;9.39;63.41;101898.78;5130731;28;20512;-87
2022/03/15 09:50:17;;;;;;;3.97;2.30;;;;;;;9.46;62.29;101895.28;5158520;28;20315;-86
2022/03/15 09:52:48;;;;;;;2.45;2.25;;;;;;;9.48;62.16;101898.75;5151395;28;20441;-88
2022/03/15 09:55:19;;;;;;;0.82;0.82;;;;;;;9.41;64.66;101903.16;5135874;28;20046;-88
2022/03/15 09:57:51;;;;;;;0.60;0.60;;;;;;;9.47;63.55;101897.00;5184710;28;20014;-91
2022/03/15 10:00:21;;;;;;;0.65;0.65;;;;;;;9.52;62.72;101894.38;5172470;28;20068;-87
2022/03/15 10:02:52;;;;;;;2.22;2.05;;;;;;;9.55;62.78;101895.25;5130636;28;20037;-87
2022/03/15 10:05:24;;;;;;;0.43;0.43;;;;;;;9.55;63.15;101900.47;5130017;28;20052;-87
2022/03/15 10:07:54;;;;;;;1.27;1.17;;;;;;;9.66;62.00;101900.44;5130087;28;20026;-86
2022/03/15 10:10:25;;;;;;;1.35;1.25;;;;;;;9.63;62.32;101899.56;5155706;28;20099;-85
2022/03/15 10:12:56;;;;;;;1.05;1.00;;;;;;;9.66;62.57;101896.94;5145361;28;20088;-87
2022/03/15 10:15:26;;;;;;;1.08;1.02;;;;;;;9.66;62.80;101891.72;5161532;28;20042;-88
2022/03/15 10:18:04;;;;;;;0.75;0.75;;;;;;;9.68;62.85;101885.56;5148707;28;20396;-88
2022/03/15 10:20:42;;;;;;;0.50;0.50;;;;;;;9.69;62.85;101892.56;5140944;28;20577;-87
2022/03/15 10:23:15;;;;;;;2.72;1.08;;;;;;;9.71;62.52;101890.78;5166776;28;20093;-87
2022/03/15 10:25:48;;;;;;;1.42;1.33;;;;;;;9.74;63.01;101887.31;5147289;28;20812;-87
2022/03/15 10:28:20;;;;;;;0.70;0.70;;;;;;;9.80;62.51;101889.00;5167646;28;20034;-86
2022/03/15 10:30:50;;;;;;;0.77;0.77;;;;;;;9.79;62.38;101882.03;5128825;28;20585;-87
2022/03/15 10:33:21;;;;;;;0.75;0.75;;;;;;;9.83;62.64;101876.78;5161796;28;20030;-87
2022/03/15 10:35:53;;;;;;;0.70;0.70;;;;;;;9.81;62.72;101882.88;5145856;28;20598;-88
2022/03/15 10:38:24;;;;;;;5.60;1.77;;;;;;;9.90;62.81;101872.34;5130029;28;20441;-86
2022/03/15 10:40:55;;;;;;;1.48;1.15;;;;;;;9.89;63.24;101883.72;5134528;28;20262;-88
2022/03/15 10:43:29;;;;;;;0.45;0.45;;;;;;;9.89;62.64;101879.34;5134288;28;20038;-87
2022/03/15 10:46:01;;;;;;;0.40;0.40;;;;;;;9.89;62.17;101876.72;5161011;28;20128;-88
2022/03/15 10:48:33;;;;;;;1.60;0.93;;;;;;;9.91;63.24;101879.34;5128724;28;20077;-86
2022/03/15 10:51:12;;;;;;;0.40;0.40;;;;;;;9.93;62.70;101882.81;5182974;28;20038;-87
2022/03/15 10:53:44;;;;;;;0.35;0.35;;;;;;;9.92;63.24;101873.22;5181661;28;20121;-88
2022/03/15 10:56:28;;;;;;;0.70;0.70;;;;;;;9.96;62.96;101868.81;5149746;28;20046;-90
2022/03/15 10:59:04;;;;;;;0.50;0.50;;;;;;;10.02;62.68;101877.53;5149158;28;20029;-86
2022/03/15 11:01:40;;;;;;;0.68;0.68;;;;;;;9.99;62.84;101869.69;5145787;28;20453;-86
2022/03/15 11:04:14;;;;;;;0.50;0.50;;;;;;;10.01;62.55;101867.91;5137071;28;20113;-88
2022/03/15 11:06:47;;;;;;;1.88;1.58;;;;;;;10.14;61.76;101859.94;5153719;28;20092;-90
2022/03/15 11:09:29;;;;;;;0.45;0.45;;;;;;;10.24;61.28;101853.78;5157121;28;20396;-88
2022/03/15 11:12:00;;;;;;;0.93;0.90;;;;;;;10.01;62.54;101854.81;5184800;28;20066;-86
2022/03/15 11:14:46;;;;;;;0.40;0.40;;;;;;;10.09;63.14;101849.50;5158735;28;20038;-84
2022/03/15 11:17:25;;;;;;;1.25;1.15;;;;;;;10.03;63.58;101853.06;5184047;28;20033;-84
2022/03/15 11:19:58;;;;;;;0.82;0.82;;;;;;;10.03;63.69;101850.44;5162656;28;20127;-83
2022/03/15 11:22:31;;;;;;;0.73;0.73;;;;;;;10.13;62.75;101847.72;5166322;28;20030;-88
2022/03/15 11:25:02;;;;;;;;;;;;;;;10.07;63.31;101841.66;5137160;28;20049;-89
2022/03/15 11:27:35;;;;;;;1.13;1.13;;;;;;;10.13;62.46;101839.84;5152727;28;19964;-89
2022/03/15 11:30:09;;;;;;;1.02;1.02;;;;;;;10.15;62.74;101828.50;5153495;28;20034;-88
2022/03/15 11:32:40;;;;;;;11.05;1.05;;;;;;;10.07;63.20;101831.16;5172180;28;20036;-87
2022/03/15 11:35:12;;;;;;;0.82;0.82;;;;;;;10.10;63.38;101832.03;5176917;28;20037;-88
2022/03/15 11:37:42;;;;;;;1.13;1.05;;;;;;;10.15;63.55;101832.84;5158818;28;20022;-90
2022/03/15 11:40:13;;;;;;;0.70;0.70;;;;;;;10.26;62.24;101827.50;5168042;28;20481;-87
2022/03/15 11:42:48;;;;;;;0.50;0.50;;;;;;;10.22;63.89;101816.19;5150204;28;20116;-87
2022/03/15 11:45:27;;;;;;;1.10;1.10;;;;;;;10.33;63.18;101810.88;5137129;28;20117;-86
2022/03/15 11:47:57;;;;;;;0.93;0.93;;;;;;;10.36;63.16;101809.09;5148378;28;20054;-88
2022/03/15 11:50:49;;;;;;;0.45;0.45;;;;;;;10.34;64.64;101808.22;5135676;28;20038;-86
2022/03/15 11:53:39;;;;;;;0.68;0.68;;;;;;;10.28;63.85;101797.78;5154721;28;20467;-88
2022/03/15 11:56:38;;;;;;;0.90;0.90;;;;;;;10.19;64.72;101795.25;5134715;28;20126;-87
2022/03/15 11:59:08;;;;;;;0.75;0.75;;;;;;;10.34;63.51;101795.09;5140461;28;20026;-87
2022/03/15 12:01:47;;;;;;;1.20;1.20;;;;;;;10.42;63.81;101786.31;5164831;28;20050;-86
2022/03/15 12:04:27;;;;;;;0.75;0.75;;;;;;;10.41;63.72;101777.59;5137757;28;20045;-87
2022/03/15 12:07:02;;;;;;;0.68;0.68;;;;;;;10.12;66.30;101769.97;5152743;28;20042;-87
2022/03/15 12:09:34;;;;;;;0.60;0.60;;;;;;;10.18;66.38;101767.28;5129908;28;20578;-85
2022/03/15 12:12:08;;;;;;;1.20;0.65;;;;;;;10.28;64.87;101770.69;5152751;28;20030;-86
2022/03/15 12:14:51;;;;;;;0.55;0.55;;;;;;;10.28;65.10;101757.56;5158913;28;20030;-88
2022/03/15 12:17:21;;;;;;;0.65;0.65;;;;;;;10.32;65.58;101760.16;5168250;28;20026;-86